createdAt,value
2023-03-23T15:58:46.881Z,37.86
2023-03-23T16:01:17.196Z,38.29
2023-03-23T16:03:49.254Z,39.20
2023-03-23T16:06:23.418Z,38.07
2023-03-23T16:08:55.809Z,39.04
2023-03-23T16:11:25.888Z,38.62
2023-03-23T16:13:54.185Z,39.75
2023-03-23T16:16:24.546Z,39.48
2023-03-23T16:18:52.909Z,39.54
2023-03-23T16:21:21.276Z,40.71
2023-03-23T16:23:49.557Z,40.79
2023-03-23T16:26:19.506Z,40.65
2023-03-23T16:28:47.952Z,40.43
2023-03-23T16:31:16.287Z,40.68
2023-03-23T16:33:44.663Z,41.08
2023-03-23T16:36:13.531Z,40.70
2023-03-23T16:38:49.351Z,40.89
2023-03-23T16:41:20.792Z,40.84
2023-03-23T16:43:49.082Z,41.13
2023-03-23T16:46:17.771Z,40.87
2023-03-23T16:48:46.062Z,41.48
2023-03-23T16:51:14.336Z,41.15
2023-03-23T16:53:42.653Z,41.47
2023-03-23T16:56:10.964Z,41.72
2023-03-23T16:58:41.532Z,41.63
2023-03-23T17:01:09.608Z,41.54
2023-03-23T17:03:37.924Z,41.59
2023-03-23T17:06:06.954Z,41.54
2023-03-23T17:08:35.307Z,41.80
2023-03-23T17:11:03.562Z,41.22
2023-03-23T17:13:31.857Z,40.92
2023-03-23T17:16:01.546Z,40.71
2023-03-23T17:18:29.794Z,41.09
2023-03-23T17:20:58.083Z,40.90
2023-03-23T17:23:26.506Z,40.90
2023-03-23T17:25:55.609Z,41.39
2023-03-23T17:28:23.916Z,41.33
2023-03-23T17:30:52.890Z,41.66
2023-03-23T17:33:22.545Z,41.91
2023-03-23T17:35:51.866Z,42.12
2023-03-23T17:38:20.625Z,42.06
2023-03-23T17:40:48.912Z,42.17
2023-03-23T17:43:17.237Z,42.26
2023-03-23T17:45:47.106Z,42.68
2023-03-23T17:48:15.767Z,42.37
2023-03-23T17:50:47.962Z,43.03
2023-03-23T17:53:18.493Z,43.03
2023-03-23T17:55:46.939Z,42.91
2023-03-23T17:58:15.695Z,42.70
2023-03-23T18:00:44.030Z,42.41
2023-03-23T18:03:12.346Z,42.32
2023-03-23T18:05:40.661Z,42.76
2023-03-23T18:08:10.750Z,42.55
2023-03-23T18:10:40.320Z,42.61
2023-03-23T18:13:09.484Z,42.81
2023-03-23T18:15:38.397Z,42.37
2023-03-23T18:18:07.173Z,42.54
2023-03-23T18:20:35.626Z,42.44
2023-03-23T18:23:04.707Z,42.69
2023-03-23T18:25:34.679Z,42.68
2023-03-23T18:28:04.833Z,42.66
2023-03-23T18:30:35.708Z,42.73
2023-03-23T18:33:04.250Z,43.15
2023-03-23T18:35:32.664Z,43.69
2023-03-23T18:38:01.205Z,43.64
2023-03-23T18:40:29.459Z,43.79
2023-03-23T18:43:00.558Z,43.34
2023-03-23T18:45:29.041Z,42.86
2023-03-23T18:47:57.310Z,43.11
2023-03-23T18:50:25.860Z,42.87
2023-03-23T18:52:54.143Z,42.87
2023-03-23T18:55:23.834Z,43.02
2023-03-23T18:57:52.216Z,42.91
2023-03-23T19:00:22.460Z,42.82
2023-03-23T19:02:51.931Z,42.64
2023-03-23T19:05:21.620Z,42.83
2023-03-23T19:07:49.968Z,42.60
2023-03-23T19:10:18.258Z,42.43
2023-03-23T19:12:47.348Z,42.14
2023-03-23T19:15:17.326Z,42.29
2023-03-23T19:17:47.022Z,42.52
2023-03-23T19:20:26.960Z,42.43
2023-03-23T19:23:03.821Z,42.52
2023-03-23T19:25:32.629Z,42.58
2023-03-23T19:30:32.229Z,42.74
2023-03-23T19:33:01.979Z,42.64
2023-03-23T19:35:30.255Z,42.63
2023-03-23T19:37:58.534Z,42.54
2023-03-23T19:40:39.093Z,42.47
2023-03-23T19:43:09.380Z,42.53
2023-03-23T19:45:38.257Z,42.57
2023-03-23T19:48:08.004Z,42.60
2023-03-23T19:50:38.626Z,42.67
2023-03-23T19:53:07.331Z,42.64
2023-03-23T19:55:35.816Z,42.63
2023-03-23T19:58:04.092Z,42.79
2023-03-23T20:00:34.350Z,42.75
2023-03-23T20:03:03.805Z,43.04
2023-03-23T20:05:35.150Z,42.99
2023-03-23T20:08:04.754Z,43.41
2023-03-23T20:10:34.668Z,43.50
2023-03-23T20:13:02.987Z,43.80
2023-03-23T20:15:32.005Z,43.88
2023-03-23T20:18:00.930Z,43.58
2023-03-23T20:20:29.647Z,43.61
2023-03-23T20:22:59.208Z,43.53
2023-03-23T20:25:27.466Z,43.39
2023-03-23T20:27:55.767Z,43.68
2023-03-23T20:30:23.990Z,43.94
2023-03-23T20:32:53.595Z,43.90
2023-03-23T20:35:22.443Z,44.28
2023-03-23T20:37:52.678Z,44.34
2023-03-23T20:40:22.488Z,44.28
2023-03-23T20:42:52.692Z,44.19
2023-03-23T20:45:21.421Z,44.27
2023-03-23T20:47:49.711Z,44.48
2023-03-23T20:50:18.559Z,44.43
2023-03-23T20:52:48.031Z,44.61
2023-03-23T20:55:16.345Z,44.61
2023-03-23T20:57:45.922Z,44.64
2023-03-23T21:00:17.910Z,44.69
2023-03-23T21:02:49.789Z,44.54
2023-03-23T21:05:18.138Z,44.46
2023-03-23T21:07:46.715Z,44.38
2023-03-23T21:10:15.000Z,44.43
2023-03-23T21:12:43.254Z,44.24
2023-03-23T21:15:13.877Z,44.24
2023-03-23T21:17:42.102Z,44.35
2023-03-23T21:20:11.457Z,44.45
2023-03-23T21:22:39.731Z,44.44
2023-03-23T21:25:08.604Z,44.39
2023-03-23T21:27:37.342Z,44.39
2023-03-23T21:30:06.404Z,44.48
2023-03-23T21:32:36.371Z,44.69
2023-03-23T21:35:04.848Z,44.70
2023-03-23T21:37:33.641Z,44.95
2023-03-23T21:40:02.234Z,45.58
2023-03-23T21:42:31.134Z,45.83
2023-03-23T21:45:02.554Z,45.98
2023-03-23T21:47:31.351Z,46.09
2023-03-23T21:50:02.011Z,46.17
2023-03-23T21:52:31.048Z,46.67
2023-03-23T21:54:59.461Z,47.07
2023-03-23T21:57:27.691Z,47.50
2023-03-23T21:59:56.473Z,47.27
2023-03-23T22:02:24.907Z,47.39
2023-03-23T22:04:56.339Z,48.10
2023-03-23T22:07:27.696Z,47.93
2023-03-23T22:09:57.582Z,48.35
2023-03-23T22:12:26.214Z,48.86
2023-03-23T22:14:54.597Z,49.78
2023-03-23T22:17:22.981Z,50.23
2023-03-23T22:19:51.342Z,50.83
2023-03-23T22:22:20.135Z,51.76
2023-03-23T22:24:49.886Z,52.43
2023-03-23T22:27:18.371Z,53.10
2023-03-23T22:29:46.904Z,53.69
2023-03-23T22:32:15.409Z,54.07
2023-03-23T22:34:43.884Z,54.50
2023-03-23T22:37:12.204Z,55.53
2023-03-23T22:39:40.521Z,56.50
2023-03-23T22:42:12.372Z,56.80
2023-03-23T22:44:41.895Z,57.69
2023-03-23T22:47:10.231Z,57.69
2023-03-23T22:49:38.571Z,57.58
2023-03-23T22:52:06.944Z,57.65
2023-03-23T22:57:33.774Z,58.34
2023-03-23T23:00:02.150Z,58.72
2023-03-23T23:02:30.687Z,59.51
2023-03-23T23:04:59.148Z,59.66
2023-03-23T23:07:27.542Z,60.02
2023-03-23T23:09:55.872Z,61.25
2023-03-23T23:12:24.250Z,61.07
2023-03-23T23:14:53.972Z,61.60
2023-03-23T23:17:22.305Z,61.66
2023-03-23T23:19:50.655Z,62.25
2023-03-23T23:22:19.639Z,62.87
2023-03-23T23:24:48.497Z,63.18
2023-03-23T23:27:18.176Z,63.70
2023-03-23T23:29:46.572Z,64.11
2023-03-23T23:32:16.653Z,64.65
2023-03-23T23:34:44.997Z,65.00
2023-03-23T23:37:13.860Z,66.33
2023-03-23T23:39:42.610Z,67.01
2023-03-23T23:42:10.964Z,68.33
2023-03-23T23:44:39.557Z,68.77
2023-03-23T23:47:08.185Z,69.15
2023-03-23T23:49:38.500Z,69.49
2023-03-23T23:52:08.472Z,69.81
2023-03-23T23:54:37.603Z,69.80
2023-03-23T23:57:06.578Z,70.17
2023-03-23T23:59:34.988Z,70.30
